createdAt,value
2023-12-10T00:01:03.602Z,13.55
2023-12-10T00:03:30.354Z,16.75
2023-12-10T00:06:04.400Z,15.85
2023-12-10T00:08:37.672Z,19.17
2023-12-10T00:11:04.268Z,10.48
2023-12-10T00:13:30.759Z,10.57
2023-12-10T00:15:57.228Z,7.13
2023-12-10T00:18:23.893Z,13.98
2023-12-10T00:20:50.676Z,6.60
2023-12-10T00:23:17.271Z,9.90
2023-12-10T00:25:44.334Z,8.30
2023-12-10T00:28:11.296Z,4.28
2023-12-10T00:30:38.399Z,9.00
2023-12-10T00:33:05.034Z,12.68
2023-12-10T00:35:32.134Z,14.52
2023-12-10T00:37:58.685Z,15.18
2023-12-10T00:40:25.251Z,16.50
2023-12-10T00:42:52.434Z,22.27
2023-12-10T00:45:19.215Z,13.88
2023-12-10T00:47:45.950Z,23.52
2023-12-10T00:50:12.654Z,16.48
2023-12-10T00:52:39.707Z,11.35
2023-12-10T00:55:06.440Z,12.73
2023-12-10T00:57:33.876Z,12.68
2023-12-10T01:00:00.723Z,17.75
2023-12-10T01:02:27.669Z,18.73
2023-12-10T01:04:54.763Z,14.23
2023-12-10T01:07:21.378Z,12.68
2023-12-10T01:09:48.053Z,24.33
2023-12-10T01:12:14.699Z,18.80
2023-12-10T01:14:41.321Z,21.25
2023-12-10T01:17:09.399Z,12.95
2023-12-10T01:19:36.209Z,19.48
2023-12-10T01:22:04.589Z,9.80
2023-12-10T01:24:31.464Z,14.88
2023-12-10T01:26:57.990Z,20.50
2023-12-10T01:29:26.829Z,20.50
2023-12-10T01:31:53.445Z,14.90
2023-12-10T01:34:20.340Z,17.33
2023-12-10T01:36:47.061Z,14.27
2023-12-10T01:39:16.356Z,22.15
2023-12-10T01:41:42.968Z,19.90
2023-12-10T01:44:10.976Z,16.40
2023-12-10T01:46:37.699Z,15.35
2023-12-10T01:49:05.811Z,12.07
2023-12-10T01:51:32.421Z,19.77
2023-12-10T01:53:58.955Z,20.63
2023-12-10T01:56:25.667Z,15.52
2023-12-10T01:58:52.228Z,29.30
2023-12-10T02:01:19.453Z,29.13
2023-12-10T02:03:46.643Z,26.02
2023-12-10T02:06:13.355Z,19.48
2023-12-10T02:08:40.498Z,16.30
2023-12-10T02:11:07.190Z,26.48
2023-12-10T02:13:33.835Z,29.52
2023-12-10T02:16:00.447Z,16.55
2023-12-10T02:18:27.104Z,21.20
2023-12-10T02:20:53.733Z,23.38
2023-12-10T02:23:39.292Z,18.10
2023-12-10T02:26:06.063Z,16.55
2023-12-10T02:28:32.790Z,18.73
2023-12-10T02:30:59.380Z,23.33
2023-12-10T02:33:26.028Z,20.00
2023-12-10T02:35:53.284Z,19.58
2023-12-10T02:38:22.441Z,20.08
2023-12-10T02:40:50.426Z,25.85
2023-12-10T02:43:20.841Z,20.15
2023-12-10T02:45:48.390Z,10.10
2023-12-10T02:48:15.267Z,13.27
2023-12-10T02:50:41.904Z,12.15
2023-12-10T02:53:08.449Z,12.82
2023-12-10T02:55:35.056Z,14.65
2023-12-10T02:58:03.568Z,11.38
2023-12-10T03:00:31.692Z,11.38
2023-12-10T03:02:58.315Z,13.73
2023-12-10T03:05:26.121Z,8.00
2023-12-10T03:07:52.864Z,13.77
2023-12-10T03:10:19.433Z,5.43
2023-12-10T03:12:46.026Z,15.00
2023-12-10T03:15:12.716Z,11.93
2023-12-10T03:17:39.429Z,14.57
2023-12-10T03:20:06.502Z,11.57
2023-12-10T03:22:32.933Z,19.75
2023-12-10T03:24:59.445Z,23.63
2023-12-10T03:27:25.952Z,17.27
2023-12-10T03:29:52.542Z,19.05
2023-12-10T03:32:19.164Z,17.65
2023-12-10T03:34:45.782Z,22.38
2023-12-10T03:37:12.340Z,13.68
2023-12-10T03:39:38.908Z,16.27
2023-12-10T03:42:05.428Z,17.35
2023-12-10T03:44:33.764Z,18.83
2023-12-10T03:47:02.970Z,23.38
2023-12-10T03:49:32.756Z,20.83
2023-12-10T03:51:59.400Z,22.05
2023-12-10T03:54:25.868Z,14.32
2023-12-10T03:56:52.453Z,23.10
2023-12-10T03:59:19.011Z,15.20
2023-12-10T04:01:45.635Z,14.27
2023-12-10T04:04:12.736Z,11.35
2023-12-10T04:06:40.503Z,10.50
2023-12-10T04:09:10.615Z,15.52
2023-12-10T04:11:37.964Z,18.13
2023-12-10T04:14:07.804Z,17.02
2023-12-10T04:16:34.350Z,13.88
2023-12-10T04:19:01.032Z,10.63
2023-12-10T04:21:27.795Z,11.82
2023-12-10T04:23:54.440Z,14.38
2023-12-10T04:26:21.381Z,18.67
2023-12-10T04:28:47.973Z,27.15
2023-12-10T04:31:14.714Z,17.80
2023-12-10T04:33:41.812Z,8.02
2023-12-10T04:36:08.987Z,13.23
2023-12-10T04:38:35.744Z,13.55
2023-12-10T04:41:02.235Z,9.70
2023-12-10T04:43:28.787Z,10.57
2023-12-10T04:45:55.422Z,10.05
2023-12-10T04:48:22.408Z,10.25
2023-12-10T04:50:49.046Z,12.30
2023-12-10T04:53:15.670Z,17.35
2023-12-10T04:55:42.199Z,12.02
2023-12-10T04:58:09.161Z,20.67
2023-12-10T05:00:36.022Z,17.45
2023-12-10T05:03:02.686Z,21.92
2023-12-10T05:05:29.249Z,19.17
2023-12-10T05:07:55.838Z,10.20
2023-12-10T05:10:23.271Z,12.50
2023-12-10T05:12:49.857Z,13.68
2023-12-10T05:15:16.870Z,12.05
2023-12-10T05:17:43.593Z,14.15
2023-12-10T05:20:10.346Z,15.93
2023-12-10T05:22:36.958Z,15.38
2023-12-10T05:25:04.653Z,14.43
2023-12-10T05:27:33.901Z,20.70
2023-12-10T05:30:01.134Z,11.48
2023-12-10T05:32:28.693Z,19.65
2023-12-10T05:34:55.665Z,15.02
2023-12-10T05:37:22.278Z,15.27
2023-12-10T05:39:49.030Z,15.57
2023-12-10T05:42:15.744Z,25.08
2023-12-10T05:44:42.431Z,9.68
2023-12-10T05:47:08.977Z,14.57
2023-12-10T05:49:35.748Z,14.57
2023-12-10T05:52:02.412Z,11.95
2023-12-10T05:54:29.044Z,14.63
2023-12-10T05:56:55.850Z,13.35
2023-12-10T05:59:22.378Z,13.90
2023-12-10T06:01:49.065Z,13.77
2023-12-10T06:04:15.776Z,14.32
2023-12-10T06:06:42.428Z,26.60
2023-12-10T06:09:10.588Z,14.10
2023-12-10T06:11:37.299Z,16.23
2023-12-10T06:14:03.935Z,6.68
2023-12-10T06:16:30.557Z,15.73
2023-12-10T06:18:57.301Z,13.32
2023-12-10T06:21:24.082Z,12.85
2023-12-10T06:23:50.697Z,11.05
2023-12-10T06:26:17.399Z,14.75
2023-12-10T06:28:44.079Z,9.70
2023-12-10T06:31:10.761Z,16.90
2023-12-10T06:33:37.606Z,6.10
2023-12-10T06:36:04.634Z,9.82
2023-12-10T06:38:31.242Z,10.07
2023-12-10T06:40:57.796Z,17.25
2023-12-10T06:43:25.838Z,13.60
2023-12-10T06:45:52.840Z,14.32
2023-12-10T06:48:19.757Z,13.90
2023-12-10T06:50:46.439Z,10.30
2023-12-10T06:53:12.990Z,13.25
2023-12-10T06:55:39.568Z,16.08
2023-12-10T06:58:06.241Z,6.38
2023-12-10T07:00:33.035Z,12.15
2023-12-10T07:02:59.915Z,13.27
2023-12-10T07:05:26.681Z,11.63
2023-12-10T07:07:53.329Z,10.85
2023-12-10T07:10:19.895Z,9.52
2023-12-10T07:12:46.641Z,9.48
2023-12-10T07:15:13.194Z,10.15
2023-12-10T07:17:40.227Z,19.88
2023-12-10T07:20:10.610Z,9.10
2023-12-10T07:22:37.283Z,14.35
2023-12-10T07:25:06.833Z,14.60
2023-12-10T07:27:33.644Z,14.02
2023-12-10T07:30:00.321Z,16.23
2023-12-10T07:32:27.476Z,10.02
2023-12-10T07:34:54.446Z,10.07
2023-12-10T07:37:21.210Z,16.58
2023-12-10T07:39:47.904Z,13.95
2023-12-10T07:42:14.658Z,15.50
2023-12-10T07:44:41.160Z,18.52
2023-12-10T07:47:10.827Z,10.32
2023-12-10T07:49:39.180Z,14.00
2023-12-10T07:52:06.181Z,13.70
2023-12-10T07:54:32.814Z,13.55
2023-12-10T07:56:59.603Z,15.75
2023-12-10T07:59:26.529Z,8.48
2023-12-10T08:01:53.340Z,12.63
2023-12-10T08:04:20.058Z,8.95
2023-12-10T08:06:46.945Z,8.27
2023-12-10T08:09:13.659Z,16.52
2023-12-10T08:11:40.242Z,13.25
2023-12-10T08:14:06.746Z,10.32
2023-12-10T08:16:35.799Z,12.55
2023-12-10T08:19:04.244Z,15.55
2023-12-10T08:21:31.057Z,19.42
2023-12-10T08:23:57.636Z,18.30
2023-12-10T08:26:24.164Z,11.90
2023-12-10T08:28:50.733Z,13.68
2023-12-10T08:31:17.420Z,8.90
2023-12-10T08:33:46.083Z,19.80
2023-12-10T08:36:12.910Z,13.93
2023-12-10T08:38:39.485Z,11.25
2023-12-10T08:41:08.266Z,14.60
2023-12-10T08:43:35.015Z,5.40
2023-12-10T08:46:01.740Z,6.85
2023-12-10T08:48:28.925Z,11.35
2023-12-10T08:50:55.592Z,22.30
2023-12-10T08:53:22.176Z,6.07
2023-12-10T08:55:49.948Z,14.52
2023-12-10T08:58:17.125Z,19.48
2023-12-10T09:00:43.757Z,13.32
2023-12-10T09:03:10.344Z,14.73
2023-12-10T09:05:36.905Z,11.52
2023-12-10T09:08:03.538Z,15.23
2023-12-10T09:10:30.163Z,11.63
2023-12-10T09:12:56.804Z,10.07
2023-12-10T09:15:23.425Z,16.58
2023-12-10T09:17:50.101Z,11.73
2023-12-10T09:20:16.869Z,17.02
2023-12-10T09:22:43.804Z,19.50
2023-12-10T09:25:10.343Z,5.85
2023-12-10T09:27:36.989Z,5.30
2023-12-10T09:30:03.990Z,11.73
2023-12-10T09:32:30.894Z,12.70
2023-12-10T09:34:57.842Z,8.88
2023-12-10T09:37:24.555Z,9.68
2023-12-10T09:39:51.202Z,21.08
2023-12-10T09:42:17.870Z,8.45
2023-12-10T09:44:44.409Z,8.15
2023-12-10T09:47:11.455Z,11.25
2023-12-10T09:49:39.731Z,10.05
2023-12-10T09:52:07.210Z,8.40
2023-12-10T09:54:33.941Z,7.22
2023-12-10T09:57:00.480Z,8.02
2023-12-10T09:59:27.005Z,12.82
2023-12-10T10:01:54.503Z,8.43
2023-12-10T10:04:21.408Z,7.60
2023-12-10T10:06:48.045Z,12.90
2023-12-10T10:09:24.742Z,10.43
2023-12-10T10:11:59.036Z,9.10
2023-12-10T10:14:26.726Z,11.80
2023-12-10T10:16:53.378Z,8.48
2023-12-10T10:19:20.157Z,9.25
2023-12-10T10:21:46.859Z,8.93
2023-12-10T10:24:16.314Z,10.38
2023-12-10T10:26:44.791Z,8.90
2023-12-10T10:29:11.329Z,3.97
2023-12-10T10:31:39.016Z,11.23
2023-12-10T10:34:06.655Z,8.10
2023-12-10T10:36:33.739Z,6.07
2023-12-10T10:39:00.544Z,8.95
2023-12-10T10:41:27.821Z,5.07
2023-12-10T10:43:57.412Z,4.57
2023-12-10T10:46:24.648Z,4.85
2023-12-10T10:48:53.356Z,8.18
2023-12-10T10:51:23.972Z,4.35
2023-12-10T10:53:50.937Z,8.45
2023-12-10T10:56:17.730Z,10.10
2023-12-10T10:58:44.347Z,5.95
2023-12-10T11:01:31.088Z,4.78
2023-12-10T11:03:58.414Z,9.60
2023-12-10T11:06:26.101Z,3.90
2023-12-10T11:08:59.290Z,4.72
2023-12-10T11:11:26.661Z,7.68
2023-12-10T11:13:54.350Z,10.90
2023-12-10T11:16:22.688Z,11.20
2023-12-10T11:18:57.923Z,6.82
2023-12-10T11:21:24.970Z,11.07
2023-12-10T11:23:52.115Z,8.23
2023-12-10T11:26:18.692Z,10.27
2023-12-10T11:28:45.419Z,10.55
2023-12-10T11:31:13.451Z,9.48
2023-12-10T11:33:42.271Z,13.70
2023-12-10T11:36:33.207Z,8.73
2023-12-10T11:38:59.455Z,9.18
2023-12-10T11:43:54.653Z,8.38
2023-12-10T11:46:31.972Z,11.95
2023-12-10T11:49:04.835Z,9.25
2023-12-10T11:51:31.491Z,7.97
2023-12-10T11:53:58.102Z,7.68
2023-12-10T11:56:24.554Z,8.95
2023-12-10T11:58:51.100Z,9.95
2023-12-10T12:01:18.019Z,15.82
2023-12-10T12:03:45.037Z,9.50
2023-12-10T12:06:11.821Z,5.85
2023-12-10T12:08:38.388Z,9.57
2023-12-10T12:11:05.427Z,10.43
2023-12-10T12:13:32.032Z,11.10
2023-12-10T12:15:58.639Z,6.22
2023-12-10T12:18:26.698Z,6.10
2023-12-10T12:20:53.558Z,9.93
2023-12-10T12:23:20.127Z,5.85
2023-12-10T12:25:47.382Z,11.20
2023-12-10T12:28:14.115Z,13.00
2023-12-10T12:30:40.816Z,3.22
2023-12-10T12:33:07.719Z,8.32
2023-12-10T12:35:34.432Z,11.75
2023-12-10T12:38:00.989Z,5.75
2023-12-10T12:40:27.451Z,7.95
2023-12-10T12:42:54.027Z,6.32
2023-12-10T12:45:20.747Z,8.40
2023-12-10T12:47:47.689Z,12.52
2023-12-10T12:50:14.450Z,9.00
2023-12-10T12:52:41.054Z,9.85
2023-12-10T12:55:07.868Z,8.68
2023-12-10T12:57:34.669Z,7.97
2023-12-10T13:00:01.277Z,12.13
2023-12-10T13:02:27.845Z,9.02
2023-12-10T13:04:54.512Z,11.15
2023-12-10T13:07:21.170Z,7.97
2023-12-10T13:09:47.845Z,12.45
2023-12-10T13:12:14.630Z,7.68
2023-12-10T13:14:41.287Z,11.85
2023-12-10T13:17:07.774Z,4.50
2023-12-10T13:19:34.408Z,6.05
2023-12-10T13:22:00.989Z,5.85
2023-12-10T13:24:27.548Z,5.75
2023-12-10T13:26:54.174Z,11.82
2023-12-10T13:29:21.258Z,4.75
2023-12-10T13:31:47.755Z,5.78
2023-12-10T13:34:14.333Z,8.45
2023-12-10T13:36:41.030Z,6.93
2023-12-10T13:39:07.541Z,11.73
2023-12-10T13:41:34.098Z,6.20
2023-12-10T13:44:00.593Z,7.00
2023-12-10T13:46:27.449Z,6.45
2023-12-10T13:48:54.369Z,5.05
2023-12-10T13:51:21.383Z,4.90
2023-12-10T13:53:48.039Z,4.10
2023-12-10T13:56:14.581Z,6.25
2023-12-10T13:58:41.101Z,5.82
2023-12-10T14:01:07.954Z,13.93
2023-12-10T14:03:34.708Z,5.03
2023-12-10T14:06:01.599Z,9.52
2023-12-10T14:08:28.262Z,9.77
2023-12-10T14:10:54.985Z,11.73
2023-12-10T14:13:21.554Z,13.40
2023-12-10T14:15:48.127Z,9.88
2023-12-10T14:18:14.834Z,16.75
2023-12-10T14:20:41.471Z,13.35
2023-12-10T14:23:08.033Z,12.60
2023-12-10T14:25:35.086Z,5.07
2023-12-10T14:28:01.774Z,9.40
2023-12-10T14:30:28.421Z,12.45
2023-12-10T14:32:55.602Z,8.98
2023-12-10T14:35:22.276Z,17.80
2023-12-10T14:37:48.935Z,8.93
2023-12-10T14:40:15.471Z,4.82
2023-12-10T14:42:42.054Z,13.75
2023-12-10T14:45:08.733Z,11.88
2023-12-10T14:47:36.376Z,8.07
2023-12-10T14:50:05.152Z,12.02
2023-12-10T14:52:31.842Z,15.05
2023-12-10T14:54:58.456Z,11.68
2023-12-10T14:57:25.241Z,9.93
2023-12-10T14:59:51.915Z,12.48
2023-12-10T15:02:18.649Z,10.07
2023-12-10T15:04:46.088Z,8.10
2023-12-10T15:07:13.371Z,11.65
2023-12-10T15:09:42.727Z,14.57
2023-12-10T15:12:09.836Z,10.85
2023-12-10T15:14:36.429Z,12.05
2023-12-10T15:17:04.090Z,10.73
2023-12-10T15:19:30.843Z,10.65
2023-12-10T15:21:57.464Z,7.68
2023-12-10T15:24:24.084Z,15.70
2023-12-10T15:26:50.701Z,10.43
2023-12-10T15:29:17.864Z,16.42
2023-12-10T15:31:45.110Z,10.68
2023-12-10T15:34:11.692Z,5.88
2023-12-10T15:36:39.464Z,12.52
2023-12-10T15:39:06.154Z,12.65
2023-12-10T15:41:32.792Z,14.52
2023-12-10T15:43:59.352Z,7.15
2023-12-10T15:46:26.007Z,10.15
2023-12-10T15:48:54.211Z,4.18
2023-12-10T15:51:21.010Z,12.98
2023-12-10T15:53:47.648Z,14.10
2023-12-10T15:56:14.240Z,10.30
2023-12-10T15:58:42.235Z,10.88
2023-12-10T16:01:09.143Z,13.80
2023-12-10T16:03:35.941Z,9.05
2023-12-10T16:06:02.949Z,11.93
2023-12-10T16:08:29.654Z,8.95
2023-12-10T16:10:56.729Z,14.25
2023-12-10T16:13:24.140Z,9.82
2023-12-10T16:15:51.305Z,9.70
2023-12-10T16:18:17.940Z,11.35
2023-12-10T16:20:44.466Z,11.18
2023-12-10T16:23:11.116Z,11.98
2023-12-10T16:25:37.595Z,15.82
2023-12-10T16:28:04.276Z,10.23
2023-12-10T16:30:30.961Z,10.38
2023-12-10T16:32:58.374Z,10.15
2023-12-10T16:35:24.978Z,10.10
2023-12-10T16:37:51.548Z,20.33
2023-12-10T16:40:18.157Z,11.00
2023-12-10T16:42:44.895Z,9.75
2023-12-10T16:45:11.422Z,5.18
2023-12-10T16:47:38.803Z,12.45
2023-12-10T16:50:06.828Z,18.10
2023-12-10T16:52:33.574Z,9.48
2023-12-10T16:55:00.498Z,7.95
2023-12-10T16:57:27.723Z,10.32
2023-12-10T16:59:55.489Z,9.30
2023-12-10T17:02:23.330Z,9.35
2023-12-10T17:04:50.170Z,9.15
2023-12-10T17:07:16.935Z,5.38
2023-12-10T17:09:43.463Z,8.00
2023-12-10T17:12:10.496Z,6.75
2023-12-10T17:14:37.376Z,15.23
2023-12-10T17:17:04.215Z,10.13
2023-12-10T17:19:31.539Z,17.65
2023-12-10T17:21:59.865Z,6.32
2023-12-10T17:24:26.649Z,12.02
2023-12-10T17:26:53.300Z,11.30
2023-12-10T17:29:19.914Z,9.05
2023-12-10T17:31:46.890Z,10.65
2023-12-10T17:34:14.253Z,10.23
2023-12-10T17:36:41.248Z,10.15
2023-12-10T17:39:09.090Z,8.88
2023-12-10T17:41:37.887Z,12.43
2023-12-10T17:44:04.780Z,12.00
2023-12-10T17:46:31.425Z,13.40
2023-12-10T17:48:58.157Z,3.55
2023-12-10T17:51:24.876Z,10.20
2023-12-10T17:53:51.796Z,10.10
2023-12-10T17:56:18.807Z,11.75
2023-12-10T17:58:45.560Z,8.43
2023-12-10T18:01:12.455Z,12.10
2023-12-10T18:03:39.196Z,7.28
2023-12-10T18:06:05.770Z,7.03
2023-12-10T18:08:32.345Z,10.80
2023-12-10T18:10:58.944Z,5.35
2023-12-10T18:13:26.070Z,10.57
2023-12-10T18:15:52.687Z,4.93
2023-12-10T18:18:19.236Z,7.57
2023-12-10T18:20:45.867Z,7.20
2023-12-10T18:23:12.363Z,7.35
2023-12-10T18:25:38.957Z,4.90
2023-12-10T18:28:05.605Z,5.40
2023-12-10T18:30:32.683Z,9.93
2023-12-10T18:32:59.501Z,5.25
2023-12-10T18:35:26.261Z,10.68
2023-12-10T18:37:53.074Z,7.80
2023-12-10T18:40:19.760Z,12.82
2023-12-10T18:42:46.808Z,8.52
2023-12-10T18:45:13.575Z,6.40
2023-12-10T18:47:40.199Z,3.92
2023-12-10T18:50:07.021Z,7.38
2023-12-10T18:52:33.592Z,5.13
2023-12-10T18:55:00.261Z,9.65
2023-12-10T18:57:26.999Z,7.20
2023-12-10T18:59:53.617Z,6.28
2023-12-10T19:02:20.181Z,6.57
2023-12-10T19:04:46.761Z,4.13
2023-12-10T19:07:13.338Z,4.43
2023-12-10T19:09:40.304Z,6.50
2023-12-10T19:12:06.945Z,3.75
2023-12-10T19:14:35.794Z,6.80
2023-12-10T19:17:02.677Z,5.90
2023-12-10T19:19:29.580Z,6.72
2023-12-10T19:21:56.714Z,7.72
2023-12-10T19:24:24.329Z,5.93
2023-12-10T19:26:50.878Z,4.13
2023-12-10T19:29:17.510Z,4.22
2023-12-10T19:31:44.073Z,4.22
2023-12-10T19:34:11.425Z,3.28
2023-12-10T19:36:38.201Z,4.40
2023-12-10T19:39:05.306Z,4.85
2023-12-10T19:41:32.122Z,2.10
2023-12-10T19:43:58.678Z,3.90
2023-12-10T19:46:25.284Z,2.72
2023-12-10T19:48:51.832Z,5.78
2023-12-10T19:51:18.423Z,6.28
2023-12-10T19:53:44.904Z,7.88
2023-12-10T19:56:13.137Z,3.40
2023-12-10T19:58:40.016Z,4.90
2023-12-10T20:01:06.665Z,3.55
2023-12-10T20:03:33.459Z,2.67
2023-12-10T20:06:00.303Z,2.72
2023-12-10T20:08:27.082Z,3.72
2023-12-10T20:10:54.157Z,1.92
2023-12-10T20:13:20.855Z,4.95
2023-12-10T20:15:47.582Z,2.55
2023-12-10T20:18:18.147Z,8.45
2023-12-10T20:20:45.307Z,6.03
2023-12-10T20:23:11.858Z,5.72
2023-12-10T20:25:38.385Z,3.28
2023-12-10T20:28:05.066Z,3.83
2023-12-10T20:30:33.056Z,2.50
2023-12-10T20:32:59.798Z,2.17
2023-12-10T20:35:26.707Z,4.25
2023-12-10T20:37:53.298Z,3.03
2023-12-10T20:40:20.183Z,2.17
2023-12-10T20:42:46.750Z,1.88
2023-12-10T20:45:13.749Z,2.35
2023-12-10T20:47:40.446Z,3.42
2023-12-10T20:50:07.227Z,3.50
2023-12-10T20:52:33.839Z,1.08
2023-12-10T20:55:00.528Z,3.58
2023-12-10T20:57:27.709Z,1.55
2023-12-10T20:59:54.554Z,1.13
2023-12-10T21:02:21.109Z,1.58
2023-12-10T21:04:55.718Z,4.00
2023-12-10T21:07:22.252Z,0.85
2023-12-10T21:09:48.935Z,2.00
2023-12-10T21:12:15.653Z,1.35
2023-12-10T21:14:42.719Z,4.05
2023-12-10T21:17:12.335Z,0.95
2023-12-10T21:19:40.499Z,2.70
2023-12-10T21:22:07.391Z,3.15
2023-12-10T21:24:33.938Z,3.38
2023-12-10T21:27:00.511Z,0.57
2023-12-10T21:29:27.047Z,1.60
2023-12-10T21:31:53.547Z,2.60
2023-12-10T21:34:20.155Z,1.90
2023-12-10T21:36:46.851Z,5.22
2023-12-10T21:39:13.354Z,2.05
2023-12-10T21:41:39.902Z,1.80
2023-12-10T21:44:06.458Z,4.75
2023-12-10T21:46:36.381Z,7.63
2023-12-10T21:49:03.574Z,1.95
2023-12-10T21:51:30.421Z,3.10
2023-12-10T21:53:57.086Z,0.30
2023-12-10T21:56:23.620Z,3.55
2023-12-10T21:58:50.224Z,2.10
2023-12-10T22:01:21.063Z,1.52
2023-12-10T22:03:50.213Z,1.05
2023-12-10T22:06:17.038Z,2.42
2023-12-10T22:08:43.580Z,1.98
2023-12-10T22:11:10.183Z,1.70
2023-12-10T22:13:36.708Z,2.50
2023-12-10T22:16:03.335Z,1.02
2023-12-10T22:18:30.056Z,1.38
2023-12-10T22:20:56.700Z,1.30
2023-12-10T22:23:24.854Z,1.38
2023-12-10T22:25:51.549Z,1.38
2023-12-10T22:28:18.241Z,0.77
2023-12-10T22:30:44.868Z,1.30
2023-12-10T22:33:11.579Z,1.20
2023-12-10T22:35:38.854Z,1.27
2023-12-10T22:38:05.437Z,1.90
2023-12-10T22:40:32.083Z,4.35
2023-12-10T22:42:58.658Z,1.52
2023-12-10T22:45:25.266Z,1.13
2023-12-10T22:47:51.964Z,0.35
2023-12-10T22:50:19.946Z,0.75
2023-12-10T22:52:47.261Z,4.88
2023-12-10T22:55:16.304Z,1.77
2023-12-10T22:57:43.545Z,3.20
2023-12-10T23:00:17.672Z,1.08
2023-12-10T23:02:45.469Z,1.30
2023-12-10T23:05:12.035Z,1.00
2023-12-10T23:07:38.580Z,1.85
2023-12-10T23:10:05.485Z,2.35
2023-12-10T23:12:32.149Z,0.20
2023-12-10T23:14:58.759Z,3.05
2023-12-10T23:17:25.303Z,1.17
2023-12-10T23:19:52.154Z,0.17
2023-12-10T23:22:19.180Z,2.13
2023-12-10T23:24:45.775Z,2.15
2023-12-10T23:27:12.295Z,2.38
2023-12-10T23:29:38.777Z,1.63
2023-12-10T23:32:05.734Z,2.97
2023-12-10T23:34:32.270Z,1.02
2023-12-10T23:36:58.907Z,2.00
2023-12-10T23:39:25.960Z,1.85
2023-12-10T23:41:52.493Z,2.83
2023-12-10T23:44:19.054Z,2.70
2023-12-10T23:46:46.162Z,2.25
2023-12-10T23:49:12.882Z,6.22
2023-12-10T23:51:39.536Z,1.30
2023-12-10T23:54:06.091Z,4.28
2023-12-10T23:56:32.626Z,2.35
2023-12-10T23:58:59.164Z,1.20
